sensor_id;sensor_type;location;lat;lon;timestamp;P1;durP1;ratioP1;P2;durP2;ratioP2
51836;SDS011;38941;53.254;6.600;2024-02-23T00:01:41;3.10;;;0.60;;
51836;SDS011;38941;53.254;6.600;2024-02-23T00:03:42;2.40;;;0.73;;
51836;SDS011;38941;53.254;6.600;2024-02-23T00:05:42;3.58;;;0.40;;
51836;SDS011;38941;53.254;6.600;2024-02-23T00:07:44;2.85;;;0.30;;
51836;SDS011;38941;53.254;6.600;2024-02-23T00:09:44;4.88;;;0.77;;
51836;SDS011;38941;53.254;6.600;2024-02-23T00:11:45;5.57;;;1.40;;
51836;SDS011;38941;53.254;6.600;2024-02-23T00:13:47;1.77;;;0.30;;
51836;SDS011;38941;53.254;6.600;2024-02-23T00:15:48;5.20;;;0.75;;
51836;SDS011;38941;53.254;6.600;2024-02-23T00:17:49;1.13;;;0.30;;
51836;SDS011;38941;53.254;6.600;2024-02-23T00:19:50;8.00;;;1.13;;
51836;SDS011;38941;53.254;6.600;2024-02-23T00:21:52;2.08;;;0.43;;
51836;SDS011;38941;53.254;6.600;2024-02-23T00:23:53;4.05;;;0.40;;
51836;SDS011;38941;53.254;6.600;2024-02-23T00:25:54;2.83;;;0.88;;
51836;SDS011;38941;53.254;6.600;2024-02-23T00:27:55;0.88;;;0.22;;
51836;SDS011;38941;53.254;6.600;2024-02-23T00:29:55;2.58;;;0.45;;
51836;SDS011;38941;53.254;6.600;2024-02-23T00:31:57;1.55;;;0.32;;
51836;SDS011;38941;53.254;6.600;2024-02-23T00:33:58;2.67;;;0.38;;
51836;SDS011;38941;53.254;6.600;2024-02-23T00:35:58;7.13;;;0.60;;
51836;SDS011;38941;53.254;6.600;2024-02-23T00:38:00;4.82;;;0.40;;
51836;SDS011;38941;53.254;6.600;2024-02-23T00:40:04;2.70;;;0.50;;
51836;SDS011;38941;53.254;6.600;2024-02-23T00:42:05;3.15;;;0.52;;
51836;SDS011;38941;53.254;6.600;2024-02-23T00:44:07;5.47;;;0.57;;
51836;SDS011;38941;53.254;6.600;2024-02-23T00:46:08;8.52;;;0.98;;
51836;SDS011;38941;53.254;6.600;2024-02-23T00:48:09;9.95;;;1.30;;
51836;SDS011;38941;53.254;6.600;2024-02-23T00:50:11;11.82;;;1.02;;
51836;SDS011;38941;53.254;6.600;2024-02-23T00:52:11;7.32;;;1.00;;
51836;SDS011;38941;53.254;6.600;2024-02-23T00:54:12;1.88;;;0.73;;
51836;SDS011;38941;53.254;6.600;2024-02-23T00:56:13;4.15;;;0.90;;
51836;SDS011;38941;53.254;6.600;2024-02-23T00:58:15;6.07;;;0.50;;
51836;SDS011;38941;53.254;6.600;2024-02-23T01:00:16;6.93;;;1.00;;
51836;SDS011;38941;53.254;6.600;2024-02-23T01:02:18;1.58;;;0.85;;
51836;SDS011;38941;53.254;6.600;2024-02-23T01:04:19;5.82;;;1.55;;
51836;SDS011;38941;53.254;6.600;2024-02-23T01:06:21;5.95;;;1.38;;
51836;SDS011;38941;53.254;6.600;2024-02-23T01:08:22;4.53;;;0.50;;
51836;SDS011;38941;53.254;6.600;2024-02-23T01:10:23;3.65;;;0.93;;
51836;SDS011;38941;53.254;6.600;2024-02-23T01:12:24;2.85;;;0.55;;
51836;SDS011;38941;53.254;6.600;2024-02-23T01:14:25;3.97;;;0.50;;
51836;SDS011;38941;53.254;6.600;2024-02-23T01:16:26;3.88;;;1.70;;
51836;SDS011;38941;53.254;6.600;2024-02-23T01:18:26;1.35;;;0.40;;
51836;SDS011;38941;53.254;6.600;2024-02-23T01:20:27;2.67;;;1.30;;
51836;SDS011;38941;53.254;6.600;2024-02-23T01:22:28;7.20;;;1.38;;
51836;SDS011;38941;53.254;6.600;2024-02-23T01:24:29;8.73;;;1.10;;
51836;SDS011;38941;53.254;6.600;2024-02-23T01:26:33;4.03;;;1.05;;
51836;SDS011;38941;53.254;6.600;2024-02-23T01:28:33;7.65;;;0.90;;
51836;SDS011;38941;53.254;6.600;2024-02-23T01:30:36;4.18;;;1.10;;
51836;SDS011;38941;53.254;6.600;2024-02-23T01:32:37;2.35;;;0.73;;
51836;SDS011;38941;53.254;6.600;2024-02-23T01:34:40;3.38;;;0.57;;
51836;SDS011;38941;53.254;6.600;2024-02-23T01:36:40;5.38;;;0.77;;
51836;SDS011;38941;53.254;6.600;2024-02-23T01:38:42;2.90;;;0.70;;
51836;SDS011;38941;53.254;6.600;2024-02-23T01:40:43;5.82;;;0.85;;
51836;SDS011;38941;53.254;6.600;2024-02-23T01:42:43;1.20;;;0.60;;
51836;SDS011;38941;53.254;6.600;2024-02-23T01:44:44;2.72;;;0.80;;
51836;SDS011;38941;53.254;6.600;2024-02-23T01:46:45;4.78;;;0.82;;
51836;SDS011;38941;53.254;6.600;2024-02-23T01:48:45;4.35;;;0.70;;
51836;SDS011;38941;53.254;6.600;2024-02-23T01:50:46;3.38;;;0.75;;
51836;SDS011;38941;53.254;6.600;2024-02-23T01:52:47;3.35;;;1.15;;
51836;SDS011;38941;53.254;6.600;2024-02-23T01:54:49;9.02;;;1.10;;
51836;SDS011;38941;53.254;6.600;2024-02-23T01:56:51;5.47;;;0.70;;
51836;SDS011;38941;53.254;6.600;2024-02-23T01:58:52;7.72;;;0.70;;
51836;SDS011;38941;53.254;6.600;2024-02-23T02:00:54;4.35;;;1.17;;
51836;SDS011;38941;53.254;6.600;2024-02-23T02:02:55;4.93;;;0.60;;
51836;SDS011;38941;53.254;6.600;2024-02-23T02:04:56;2.97;;;0.80;;
51836;SDS011;38941;53.254;6.600;2024-02-23T02:06:58;1.98;;;0.75;;
51836;SDS011;38941;53.254;6.600;2024-02-23T02:08:59;2.90;;;0.90;;
51836;SDS011;38941;53.254;6.600;2024-02-23T02:11:00;4.97;;;0.85;;
51836;SDS011;38941;53.254;6.600;2024-02-23T02:15:05;5.93;;;1.23;;
51836;SDS011;38941;53.254;6.600;2024-02-23T02:17:06;6.65;;;1.27;;
51836;SDS011;38941;53.254;6.600;2024-02-23T02:19:07;7.03;;;1.20;;
51836;SDS011;38941;53.254;6.600;2024-02-23T02:21:08;3.00;;;1.02;;
51836;SDS011;38941;53.254;6.600;2024-02-23T02:23:08;9.93;;;1.40;;
51836;SDS011;38941;53.254;6.600;2024-02-23T02:25:13;7.72;;;0.90;;
51836;SDS011;38941;53.254;6.600;2024-02-23T02:27:16;6.07;;;1.13;;
51836;SDS011;38941;53.254;6.600;2024-02-23T02:29:18;8.27;;;1.55;;
51836;SDS011;38941;53.254;6.600;2024-02-23T02:31:19;14.35;;;1.17;;
51836;SDS011;38941;53.254;6.600;2024-02-23T02:33:20;6.97;;;1.05;;
51836;SDS011;38941;53.254;6.600;2024-02-23T02:35:22;6.22;;;1.20;;
51836;SDS011;38941;53.254;6.600;2024-02-23T02:37:24;9.50;;;1.50;;
51836;SDS011;38941;53.254;6.600;2024-02-23T02:39:25;8.05;;;1.08;;
51836;SDS011;38941;53.254;6.600;2024-02-23T02:41:28;7.43;;;1.25;;
51836;SDS011;38941;53.254;6.600;2024-02-23T02:43:32;7.63;;;1.90;;
51836;SDS011;38941;53.254;6.600;2024-02-23T02:45:33;9.52;;;1.65;;
51836;SDS011;38941;53.254;6.600;2024-02-23T02:47:35;15.48;;;2.08;;
51836;SDS011;38941;53.254;6.600;2024-02-23T02:49:39;4.40;;;0.90;;
51836;SDS011;38941;53.254;6.600;2024-02-23T02:51:40;5.13;;;1.50;;
51836;SDS011;38941;53.254;6.600;2024-02-23T02:53:42;6.10;;;1.25;;
51836;SDS011;38941;53.254;6.600;2024-02-23T02:55:42;9.73;;;1.10;;
51836;SDS011;38941;53.254;6.600;2024-02-23T02:57:44;5.85;;;0.90;;
51836;SDS011;38941;53.254;6.600;2024-02-23T02:59:45;9.13;;;1.33;;
51836;SDS011;38941;53.254;6.600;2024-02-23T03:01:46;10.02;;;1.38;;
51836;SDS011;38941;53.254;6.600;2024-02-23T03:03:50;5.10;;;2.13;;
51836;SDS011;38941;53.254;6.600;2024-02-23T03:05:51;8.30;;;1.10;;
51836;SDS011;38941;53.254;6.600;2024-02-23T03:07:51;9.90;;;1.10;;
51836;SDS011;38941;53.254;6.600;2024-02-23T03:09:52;6.55;;;1.30;;
51836;SDS011;38941;53.254;6.600;2024-02-23T03:11:54;5.80;;;1.40;;
51836;SDS011;38941;53.254;6.600;2024-02-23T03:13:55;8.52;;;1.45;;
51836;SDS011;38941;53.254;6.600;2024-02-23T03:15:55;9.73;;;2.90;;
51836;SDS011;38941;53.254;6.600;2024-02-23T03:17:56;10.63;;;1.45;;
51836;SDS011;38941;53.254;6.600;2024-02-23T03:19:57;9.48;;;1.90;;
51836;SDS011;38941;53.254;6.600;2024-02-23T03:21:59;9.98;;;1.45;;
51836;SDS011;38941;53.254;6.600;2024-02-23T03:24:00;11.88;;;2.55;;
51836;SDS011;38941;53.254;6.600;2024-02-23T03:26:01;7.85;;;1.45;;
51836;SDS011;38941;53.254;6.600;2024-02-23T03:28:04;10.77;;;1.48;;
51836;SDS011;38941;53.254;6.600;2024-02-23T03:30:05;10.93;;;1.50;;
51836;SDS011;38941;53.254;6.600;2024-02-23T03:32:10;3.70;;;0.93;;
51836;SDS011;38941;53.254;6.600;2024-02-23T03:34:11;8.73;;;1.67;;
51836;SDS011;38941;53.254;6.600;2024-02-23T03:36:13;7.03;;;1.90;;
51836;SDS011;38941;53.254;6.600;2024-02-23T03:38:13;10.50;;;2.20;;
51836;SDS011;38941;53.254;6.600;2024-02-23T03:40:14;5.95;;;1.10;;
51836;SDS011;38941;53.254;6.600;2024-02-23T03:42:16;8.07;;;1.13;;
51836;SDS011;38941;53.254;6.600;2024-02-23T03:44:17;7.22;;;0.93;;
51836;SDS011;38941;53.254;6.600;2024-02-23T03:46:18;5.18;;;1.52;;
51836;SDS011;38941;53.254;6.600;2024-02-23T03:48:21;11.20;;;1.92;;
51836;SDS011;38941;53.254;6.600;2024-02-23T03:50:22;7.65;;;1.05;;
51836;SDS011;38941;53.254;6.600;2024-02-23T03:52:23;13.80;;;2.33;;
51836;SDS011;38941;53.254;6.600;2024-02-23T03:54:24;7.18;;;1.23;;
51836;SDS011;38941;53.254;6.600;2024-02-23T03:56:24;8.43;;;1.65;;
51836;SDS011;38941;53.254;6.600;2024-02-23T03:58:26;8.15;;;1.27;;
51836;SDS011;38941;53.254;6.600;2024-02-23T04:00:27;5.30;;;0.82;;
51836;SDS011;38941;53.254;6.600;2024-02-23T04:02:27;6.78;;;1.30;;
51836;SDS011;38941;53.254;6.600;2024-02-23T04:04:29;12.18;;;1.13;;
51836;SDS011;38941;53.254;6.600;2024-02-23T04:06:31;6.38;;;1.05;;
51836;SDS011;38941;53.254;6.600;2024-02-23T04:08:33;8.40;;;1.33;;
51836;SDS011;38941;53.254;6.600;2024-02-23T04:10:34;7.35;;;0.95;;
51836;SDS011;38941;53.254;6.600;2024-02-23T04:12:35;7.05;;;1.08;;
51836;SDS011;38941;53.254;6.600;2024-02-23T04:14:37;12.20;;;1.25;;
51836;SDS011;38941;53.254;6.600;2024-02-23T04:16:39;12.32;;;1.30;;
51836;SDS011;38941;53.254;6.600;2024-02-23T04:18:39;6.18;;;1.00;;
51836;SDS011;38941;53.254;6.600;2024-02-23T04:20:40;5.15;;;1.17;;
51836;SDS011;38941;53.254;6.600;2024-02-23T04:22:41;5.75;;;1.05;;
51836;SDS011;38941;53.254;6.600;2024-02-23T04:24:42;4.72;;;1.30;;
51836;SDS011;38941;53.254;6.600;2024-02-23T04:26:44;4.35;;;1.05;;
51836;SDS011;38941;53.254;6.600;2024-02-23T04:28:44;9.50;;;0.98;;
51836;SDS011;38941;53.254;6.600;2024-02-23T04:30:46;6.50;;;1.10;;
51836;SDS011;38941;53.254;6.600;2024-02-23T04:32:47;8.45;;;1.33;;
51836;SDS011;38941;53.254;6.600;2024-02-23T04:34:48;11.68;;;1.20;;
51836;SDS011;38941;53.254;6.600;2024-02-23T04:36:48;5.93;;;1.30;;
51836;SDS011;38941;53.254;6.600;2024-02-23T04:38:49;22.48;;;1.90;;
51836;SDS011;38941;53.254;6.600;2024-02-23T04:40:50;5.95;;;1.00;;
51836;SDS011;38941;53.254;6.600;2024-02-23T04:42:51;5.00;;;1.33;;
51836;SDS011;38941;53.254;6.600;2024-02-23T04:44:52;9.55;;;1.13;;
51836;SDS011;38941;53.254;6.600;2024-02-23T04:46:55;6.80;;;0.68;;
51836;SDS011;38941;53.254;6.600;2024-02-23T04:48:55;8.45;;;1.08;;
51836;SDS011;38941;53.254;6.600;2024-02-23T04:50:57;6.88;;;0.90;;
51836;SDS011;38941;53.254;6.600;2024-02-23T04:52:59;5.00;;;1.05;;
51836;SDS011;38941;53.254;6.600;2024-02-23T04:55:00;4.50;;;0.73;;
51836;SDS011;38941;53.254;6.600;2024-02-23T04:57:02;5.05;;;0.57;;
51836;SDS011;38941;53.254;6.600;2024-02-23T04:59:04;5.60;;;1.58;;
51836;SDS011;38941;53.254;6.600;2024-02-23T05:01:04;9.30;;;1.10;;
51836;SDS011;38941;53.254;6.600;2024-02-23T05:03:05;8.77;;;1.10;;
51836;SDS011;38941;53.254;6.600;2024-02-23T05:05:07;7.93;;;1.90;;
51836;SDS011;38941;53.254;6.600;2024-02-23T05:07:09;11.48;;;3.05;;
51836;SDS011;38941;53.254;6.600;2024-02-23T05:09:10;5.38;;;0.80;;
51836;SDS011;38941;53.254;6.600;2024-02-23T05:11:13;12.10;;;1.63;;
51836;SDS011;38941;53.254;6.600;2024-02-23T05:13:15;2.63;;;0.95;;
51836;SDS011;38941;53.254;6.600;2024-02-23T05:15:17;13.85;;;1.10;;
51836;SDS011;38941;53.254;6.600;2024-02-23T05:17:17;7.03;;;0.93;;
51836;SDS011;38941;53.254;6.600;2024-02-23T05:19:18;6.75;;;0.88;;
51836;SDS011;38941;53.254;6.600;2024-02-23T05:21:19;5.15;;;1.25;;
51836;SDS011;38941;53.254;6.600;2024-02-23T05:23:20;7.88;;;1.20;;
51836;SDS011;38941;53.254;6.600;2024-02-23T05:25:20;7.28;;;1.70;;
51836;SDS011;38941;53.254;6.600;2024-02-23T05:27:21;6.40;;;1.15;;
51836;SDS011;38941;53.254;6.600;2024-02-23T05:29:22;12.70;;;1.10;;
51836;SDS011;38941;53.254;6.600;2024-02-23T05:31:43;3.97;;;0.70;;
51836;SDS011;38941;53.254;6.600;2024-02-23T05:33:46;4.97;;;0.90;;
51836;SDS011;38941;53.254;6.600;2024-02-23T05:35:47;6.80;;;0.90;;
51836;SDS011;38941;53.254;6.600;2024-02-23T05:37:48;4.40;;;0.98;;
51836;SDS011;38941;53.254;6.600;2024-02-23T05:39:51;5.90;;;1.00;;
51836;SDS011;38941;53.254;6.600;2024-02-23T05:41:51;9.60;;;1.10;;
51836;SDS011;38941;53.254;6.600;2024-02-23T05:43:53;6.53;;;1.00;;
51836;SDS011;38941;53.254;6.600;2024-02-23T05:45:54;7.82;;;1.20;;
51836;SDS011;38941;53.254;6.600;2024-02-23T05:47:57;5.78;;;1.20;;
51836;SDS011;38941;53.254;6.600;2024-02-23T05:49:58;9.90;;;1.30;;
51836;SDS011;38941;53.254;6.600;2024-02-23T05:51:58;7.22;;;1.15;;
51836;SDS011;38941;53.254;6.600;2024-02-23T05:53:59;2.90;;;0.63;;
51836;SDS011;38941;53.254;6.600;2024-02-23T05:56:00;2.70;;;0.65;;
51836;SDS011;38941;53.254;6.600;2024-02-23T05:58:00;7.47;;;1.05;;
51836;SDS011;38941;53.254;6.600;2024-02-23T06:00:01;5.38;;;0.85;;
51836;SDS011;38941;53.254;6.600;2024-02-23T06:02:04;13.30;;;1.17;;
51836;SDS011;38941;53.254;6.600;2024-02-23T06:04:06;7.72;;;1.30;;
51836;SDS011;38941;53.254;6.600;2024-02-23T06:06:07;8.32;;;1.23;;
51836;SDS011;38941;53.254;6.600;2024-02-23T06:08:10;5.88;;;1.20;;
51836;SDS011;38941;53.254;6.600;2024-02-23T06:10:11;5.95;;;1.42;;
51836;SDS011;38941;53.254;6.600;2024-02-23T06:12:13;5.72;;;1.38;;
51836;SDS011;38941;53.254;6.600;2024-02-23T06:14:13;9.75;;;1.70;;
51836;SDS011;38941;53.254;6.600;2024-02-23T06:16:14;4.70;;;1.50;;
51836;SDS011;38941;53.254;6.600;2024-02-23T06:18:17;4.20;;;1.42;;
51836;SDS011;38941;53.254;6.600;2024-02-23T06:20:19;5.65;;;1.70;;
51836;SDS011;38941;53.254;6.600;2024-02-23T06:22:20;5.60;;;2.08;;
51836;SDS011;38941;53.254;6.600;2024-02-23T06:24:23;4.32;;;2.15;;
51836;SDS011;38941;53.254;6.600;2024-02-23T06:26:23;6.22;;;2.50;;
51836;SDS011;38941;53.254;6.600;2024-02-23T06:28:24;7.82;;;2.72;;
51836;SDS011;38941;53.254;6.600;2024-02-23T06:30:25;8.98;;;2.00;;
51836;SDS011;38941;53.254;6.600;2024-02-23T06:32:26;10.27;;;2.90;;
51836;SDS011;38941;53.254;6.600;2024-02-23T06:34:26;6.20;;;2.30;;
51836;SDS011;38941;53.254;6.600;2024-02-23T06:36:27;8.93;;;3.10;;
51836;SDS011;38941;53.254;6.600;2024-02-23T06:38:28;10.20;;;3.42;;
51836;SDS011;38941;53.254;6.600;2024-02-23T06:40:28;13.35;;;4.38;;
51836;SDS011;38941;53.254;6.600;2024-02-23T06:42:29;10.75;;;2.85;;
51836;SDS011;38941;53.254;6.600;2024-02-23T06:44:30;8.75;;;3.10;;
51836;SDS011;38941;53.254;6.600;2024-02-23T06:46:31;9.77;;;3.33;;
51836;SDS011;38941;53.254;6.600;2024-02-23T06:48:32;11.40;;;2.72;;
51836;SDS011;38941;53.254;6.600;2024-02-23T06:50:35;13.40;;;3.42;;
51836;SDS011;38941;53.254;6.600;2024-02-23T06:52:35;10.45;;;2.88;;
51836;SDS011;38941;53.254;6.600;2024-02-23T06:54:37;9.68;;;2.80;;
51836;SDS011;38941;53.254;6.600;2024-02-23T06:56:39;8.32;;;2.78;;
51836;SDS011;38941;53.254;6.600;2024-02-23T06:58:40;9.43;;;3.40;;
51836;SDS011;38941;53.254;6.600;2024-02-23T07:00:40;7.95;;;2.97;;
51836;SDS011;38941;53.254;6.600;2024-02-23T07:02:41;9.05;;;3.25;;
51836;SDS011;38941;53.254;6.600;2024-02-23T07:04:43;11.15;;;2.95;;
51836;SDS011;38941;53.254;6.600;2024-02-23T07:06:44;9.80;;;2.33;;
51836;SDS011;38941;53.254;6.600;2024-02-23T07:08:46;10.25;;;3.03;;
51836;SDS011;38941;53.254;6.600;2024-02-23T07:10:47;13.10;;;3.47;;
51836;SDS011;38941;53.254;6.600;2024-02-23T07:12:48;9.55;;;3.45;;
51836;SDS011;38941;53.254;6.600;2024-02-23T07:16:59;12.93;;;3.33;;
51836;SDS011;38941;53.254;6.600;2024-02-23T07:19:00;14.55;;;3.22;;
51836;SDS011;38941;53.254;6.600;2024-02-23T07:21:01;11.55;;;3.63;;
51836;SDS011;38941;53.254;6.600;2024-02-23T07:23:02;10.23;;;3.70;;
51836;SDS011;38941;53.254;6.600;2024-02-23T07:25:02;9.80;;;3.65;;
51836;SDS011;38941;53.254;6.600;2024-02-23T07:27:04;9.60;;;4.30;;
51836;SDS011;38941;53.254;6.600;2024-02-23T07:29:05;10.18;;;3.20;;
51836;SDS011;38941;53.254;6.600;2024-02-23T07:31:07;14.30;;;3.70;;
51836;SDS011;38941;53.254;6.600;2024-02-23T07:33:10;7.97;;;4.00;;
51836;SDS011;38941;53.254;6.600;2024-02-23T07:35:11;7.95;;;3.20;;
51836;SDS011;38941;53.254;6.600;2024-02-23T07:37:13;7.70;;;3.75;;
51836;SDS011;38941;53.254;6.600;2024-02-23T07:39:16;13.30;;;4.38;;
51836;SDS011;38941;53.254;6.600;2024-02-23T07:41:17;7.88;;;2.95;;
51836;SDS011;38941;53.254;6.600;2024-02-23T07:43:18;7.22;;;3.33;;
51836;SDS011;38941;53.254;6.600;2024-02-23T07:45:20;11.68;;;3.13;;
51836;SDS011;38941;53.254;6.600;2024-02-23T07:47:22;6.70;;;2.85;;
51836;SDS011;38941;53.254;6.600;2024-02-23T07:49:22;5.53;;;2.13;;
51836;SDS011;38941;53.254;6.600;2024-02-23T07:51:23;10.40;;;3.60;;
51836;SDS011;38941;53.254;6.600;2024-02-23T07:53:25;9.02;;;2.97;;
51836;SDS011;38941;53.254;6.600;2024-02-23T07:55:25;5.35;;;2.88;;
51836;SDS011;38941;53.254;6.600;2024-02-23T07:57:27;6.10;;;3.00;;
51836;SDS011;38941;53.254;6.600;2024-02-23T07:59:29;10.25;;;2.67;;
51836;SDS011;38941;53.254;6.600;2024-02-23T08:01:30;5.53;;;2.20;;
51836;SDS011;38941;53.254;6.600;2024-02-23T08:03:30;9.70;;;3.00;;
51836;SDS011;38941;53.254;6.600;2024-02-23T08:05:31;13.40;;;3.10;;
51836;SDS011;38941;53.254;6.600;2024-02-23T08:07:34;9.40;;;3.10;;
51836;SDS011;38941;53.254;6.600;2024-02-23T08:09:34;5.30;;;2.25;;
51836;SDS011;38941;53.254;6.600;2024-02-23T08:11:35;7.43;;;3.05;;
51836;SDS011;38941;53.254;6.600;2024-02-23T08:13:36;8.40;;;2.40;;
51836;SDS011;38941;53.254;6.600;2024-02-23T08:15:39;12.10;;;2.85;;
51836;SDS011;38941;53.254;6.600;2024-02-23T08:17:40;6.53;;;2.50;;
51836;SDS011;38941;53.254;6.600;2024-02-23T08:19:41;8.95;;;2.38;;
51836;SDS011;38941;53.254;6.600;2024-02-23T08:21:43;13.32;;;2.40;;
51836;SDS011;38941;53.254;6.600;2024-02-23T08:23:45;3.63;;;1.73;;
51836;SDS011;38941;53.254;6.600;2024-02-23T08:25:46;5.65;;;2.53;;
51836;SDS011;38941;53.254;6.600;2024-02-23T08:27:47;12.88;;;2.95;;
51836;SDS011;38941;53.254;6.600;2024-02-23T08:29:48;5.05;;;2.00;;
51836;SDS011;38941;53.254;6.600;2024-02-23T08:31:50;5.45;;;2.22;;
51836;SDS011;38941;53.254;6.600;2024-02-23T08:33:51;8.95;;;2.30;;
51836;SDS011;38941;53.254;6.600;2024-02-23T08:35:51;2.47;;;1.73;;
51836;SDS011;38941;53.254;6.600;2024-02-23T08:37:54;11.55;;;2.28;;
51836;SDS011;38941;53.254;6.600;2024-02-23T08:39:55;4.45;;;2.15;;
51836;SDS011;38941;53.254;6.600;2024-02-23T08:41:56;11.20;;;2.22;;
51836;SDS011;38941;53.254;6.600;2024-02-23T08:43:57;6.78;;;1.77;;
51836;SDS011;38941;53.254;6.600;2024-02-23T08:45:57;6.60;;;2.20;;
51836;SDS011;38941;53.254;6.600;2024-02-23T08:47:59;7.85;;;2.63;;
51836;SDS011;38941;53.254;6.600;2024-02-23T08:52:04;4.82;;;1.65;;
51836;SDS011;38941;53.254;6.600;2024-02-23T08:54:07;4.28;;;1.63;;
51836;SDS011;38941;53.254;6.600;2024-02-23T08:56:10;17.08;;;2.95;;
51836;SDS011;38941;53.254;6.600;2024-02-23T08:58:12;6.43;;;1.60;;
51836;SDS011;38941;53.254;6.600;2024-02-23T09:00:13;4.35;;;1.60;;
51836;SDS011;38941;53.254;6.600;2024-02-23T09:02:14;4.72;;;1.10;;
51836;SDS011;38941;53.254;6.600;2024-02-23T09:04:15;4.70;;;1.40;;
51836;SDS011;38941;53.254;6.600;2024-02-23T09:06:16;7.55;;;1.27;;
51836;SDS011;38941;53.254;6.600;2024-02-23T09:08:17;4.30;;;1.58;;
51836;SDS011;38941;53.254;6.600;2024-02-23T09:10:19;4.15;;;1.00;;
51836;SDS011;38941;53.254;6.600;2024-02-23T09:12:19;5.22;;;1.98;;
51836;SDS011;38941;53.254;6.600;2024-02-23T09:14:20;1.90;;;0.80;;
51836;SDS011;38941;53.254;6.600;2024-02-23T09:16:22;4.43;;;1.30;;
51836;SDS011;38941;53.254;6.600;2024-02-23T09:18:24;3.60;;;1.23;;
51836;SDS011;38941;53.254;6.600;2024-02-23T09:20:25;6.25;;;1.15;;
51836;SDS011;38941;53.254;6.600;2024-02-23T09:22:27;8.13;;;1.42;;
51836;SDS011;38941;53.254;6.600;2024-02-23T09:24:27;3.60;;;1.02;;
51836;SDS011;38941;53.254;6.600;2024-02-23T09:26:28;2.35;;;1.00;;
51836;SDS011;38941;53.254;6.600;2024-02-23T09:28:32;4.25;;;1.20;;
51836;SDS011;38941;53.254;6.600;2024-02-23T09:30:32;3.90;;;0.80;;
51836;SDS011;38941;53.254;6.600;2024-02-23T09:32:34;3.17;;;0.82;;
51836;SDS011;38941;53.254;6.600;2024-02-23T09:34:35;3.13;;;1.30;;
51836;SDS011;38941;53.254;6.600;2024-02-23T09:36:35;4.50;;;1.30;;
51836;SDS011;38941;53.254;6.600;2024-02-23T09:38:36;3.58;;;1.25;;
51836;SDS011;38941;53.254;6.600;2024-02-23T09:40:37;4.88;;;1.25;;
51836;SDS011;38941;53.254;6.600;2024-02-23T09:42:39;5.63;;;1.73;;
51836;SDS011;38941;53.254;6.600;2024-02-23T09:44:40;7.97;;;1.23;;
51836;SDS011;38941;53.254;6.600;2024-02-23T09:46:45;4.55;;;1.40;;
51836;SDS011;38941;53.254;6.600;2024-02-23T09:48:47;5.05;;;1.50;;
51836;SDS011;38941;53.254;6.600;2024-02-23T09:50:50;4.47;;;1.52;;
51836;SDS011;38941;53.254;6.600;2024-02-23T09:52:53;4.35;;;1.10;;
51836;SDS011;38941;53.254;6.600;2024-02-23T09:54:54;7.53;;;1.48;;
51836;SDS011;38941;53.254;6.600;2024-02-23T09:56:55;4.82;;;1.20;;
51836;SDS011;38941;53.254;6.600;2024-02-23T09:58:58;5.82;;;1.20;;
51836;SDS011;38941;53.254;6.600;2024-02-23T10:01:03;5.38;;;1.02;;
51836;SDS011;38941;53.254;6.600;2024-02-23T10:03:04;2.08;;;0.90;;
51836;SDS011;38941;53.254;6.600;2024-02-23T10:05:05;4.05;;;1.10;;
51836;SDS011;38941;53.254;6.600;2024-02-23T10:07:08;3.88;;;0.98;;
51836;SDS011;38941;53.254;6.600;2024-02-23T10:09:08;7.05;;;1.05;;
51836;SDS011;38941;53.254;6.600;2024-02-23T10:11:11;1.70;;;0.85;;
51836;SDS011;38941;53.254;6.600;2024-02-23T10:13:13;2.53;;;0.90;;
51836;SDS011;38941;53.254;6.600;2024-02-23T10:15:14;3.20;;;1.80;;
51836;SDS011;38941;53.254;6.600;2024-02-23T10:17:15;4.53;;;0.95;;
51836;SDS011;38941;53.254;6.600;2024-02-23T10:19:16;3.30;;;0.80;;
51836;SDS011;38941;53.254;6.600;2024-02-23T10:21:18;3.92;;;0.73;;
51836;SDS011;38941;53.254;6.600;2024-02-23T10:23:18;6.75;;;0.82;;
51836;SDS011;38941;53.254;6.600;2024-02-23T10:25:20;2.80;;;0.70;;
51836;SDS011;38941;53.254;6.600;2024-02-23T10:27:21;3.00;;;0.57;;
51836;SDS011;38941;53.254;6.600;2024-02-23T10:29:23;3.38;;;0.90;;
51836;SDS011;38941;53.254;6.600;2024-02-23T10:31:27;6.70;;;1.05;;
51836;SDS011;38941;53.254;6.600;2024-02-23T10:33:28;11.80;;;0.90;;
51836;SDS011;38941;53.254;6.600;2024-02-23T10:35:31;6.18;;;0.77;;
51836;SDS011;38941;53.254;6.600;2024-02-23T10:37:35;5.35;;;0.95;;
51836;SDS011;38941;53.254;6.600;2024-02-23T10:39:36;2.05;;;0.70;;
51836;SDS011;38941;53.254;6.600;2024-02-23T10:41:43;3.03;;;0.70;;
51836;SDS011;38941;53.254;6.600;2024-02-23T10:43:57;3.13;;;0.50;;
51836;SDS011;38941;53.254;6.600;2024-02-23T10:45:59;4.38;;;0.50;;
51836;SDS011;38941;53.254;6.600;2024-02-23T10:48:02;2.70;;;0.65;;
51836;SDS011;38941;53.254;6.600;2024-02-23T10:50:04;4.50;;;0.80;;
51836;SDS011;38941;53.254;6.600;2024-02-23T10:52:05;5.00;;;1.13;;
51836;SDS011;38941;53.254;6.600;2024-02-23T10:54:08;25.88;;;1.50;;
51836;SDS011;38941;53.254;6.600;2024-02-23T10:56:11;5.22;;;1.10;;
51836;SDS011;38941;53.254;6.600;2024-02-23T10:58:13;1.55;;;0.38;;
51836;SDS011;38941;53.254;6.600;2024-02-23T11:00:16;6.10;;;1.05;;
51836;SDS011;38941;53.254;6.600;2024-02-23T11:02:20;6.63;;;1.13;;
51836;SDS011;38941;53.254;6.600;2024-02-23T11:04:22;3.67;;;1.10;;
51836;SDS011;38941;53.254;6.600;2024-02-23T11:06:33;2.80;;;1.20;;
51836;SDS011;38941;53.254;6.600;2024-02-23T11:08:34;2.25;;;0.70;;
51836;SDS011;38941;53.254;6.600;2024-02-23T11:10:51;4.95;;;1.23;;
51836;SDS011;38941;53.254;6.600;2024-02-23T11:12:58;3.65;;;0.73;;
51836;SDS011;38941;53.254;6.600;2024-02-23T11:15:02;4.15;;;1.08;;
51836;SDS011;38941;53.254;6.600;2024-02-23T11:17:04;4.45;;;0.60;;
51836;SDS011;38941;53.254;6.600;2024-02-23T11:19:06;6.43;;;0.82;;
51836;SDS011;38941;53.254;6.600;2024-02-23T11:21:11;3.45;;;1.08;;
51836;SDS011;38941;53.254;6.600;2024-02-23T11:23:15;6.45;;;0.93;;
51836;SDS011;38941;53.254;6.600;2024-02-23T11:25:17;3.17;;;0.70;;
51836;SDS011;38941;53.254;6.600;2024-02-23T11:27:18;2.10;;;0.60;;
51836;SDS011;38941;53.254;6.600;2024-02-23T11:29:19;4.63;;;0.90;;
51836;SDS011;38941;53.254;6.600;2024-02-23T11:31:22;6.80;;;1.58;;
51836;SDS011;38941;53.254;6.600;2024-02-23T11:33:26;2.65;;;0.70;;
51836;SDS011;38941;53.254;6.600;2024-02-23T11:35:27;8.00;;;1.10;;
51836;SDS011;38941;53.254;6.600;2024-02-23T11:37:28;2.33;;;0.90;;
51836;SDS011;38941;53.254;6.600;2024-02-23T11:39:33;3.35;;;0.82;;
51836;SDS011;38941;53.254;6.600;2024-02-23T11:41:37;4.15;;;0.90;;
51836;SDS011;38941;53.254;6.600;2024-02-23T11:43:38;6.95;;;1.00;;
51836;SDS011;38941;53.254;6.600;2024-02-23T11:45:41;3.47;;;0.90;;
51836;SDS011;38941;53.254;6.600;2024-02-23T11:47:42;8.27;;;1.25;;
51836;SDS011;38941;53.254;6.600;2024-02-23T11:49:43;4.82;;;0.82;;
51836;SDS011;38941;53.254;6.600;2024-02-23T11:51:45;8.75;;;1.08;;
51836;SDS011;38941;53.254;6.600;2024-02-23T11:53:46;3.05;;;0.88;;
51836;SDS011;38941;53.254;6.600;2024-02-23T11:55:48;3.05;;;0.55;;
51836;SDS011;38941;53.254;6.600;2024-02-23T11:57:49;4.95;;;1.33;;
51836;SDS011;38941;53.254;6.600;2024-02-23T11:59:50;8.18;;;0.95;;
51836;SDS011;38941;53.254;6.600;2024-02-23T12:01:53;5.90;;;1.42;;
51836;SDS011;38941;53.254;6.600;2024-02-23T12:03:55;2.13;;;0.82;;
51836;SDS011;38941;53.254;6.600;2024-02-23T12:05:59;3.22;;;0.73;;
51836;SDS011;38941;53.254;6.600;2024-02-23T12:08:01;9.05;;;0.75;;
51836;SDS011;38941;53.254;6.600;2024-02-23T12:10:02;6.32;;;0.82;;
51836;SDS011;38941;53.254;6.600;2024-02-23T12:12:04;7.28;;;1.35;;
51836;SDS011;38941;53.254;6.600;2024-02-23T12:14:05;1.52;;;0.80;;
51836;SDS011;38941;53.254;6.600;2024-02-23T12:16:10;3.65;;;0.90;;
51836;SDS011;38941;53.254;6.600;2024-02-23T12:18:11;7.57;;;1.55;;